createdAt,value
2019-05-23T00:09:03.897Z,11.42
2019-05-23T00:19:41.447Z,11.59
2019-05-23T00:30:17.131Z,11.85
2019-05-23T00:40:51.795Z,11.48
2019-05-23T00:51:27.513Z,11.37
2019-05-23T01:02:02.012Z,11.19
2019-05-23T01:12:36.536Z,10.95
2019-05-23T01:23:13.281Z,10.58
2019-05-23T01:33:47.939Z,10.28
2019-05-23T01:44:21.336Z,10.02
2019-05-23T01:54:54.934Z,9.96
2019-05-23T02:05:29.336Z,9.96
2019-05-23T02:16:03.022Z,10.30
2019-05-23T02:26:38.705Z,10.59
2019-05-23T02:37:15.050Z,10.50
2019-05-23T02:47:51.009Z,11.55
2019-05-23T02:58:31.498Z,12.31
2019-05-23T03:09:07.048Z,12.16
2019-05-23T03:19:49.781Z,12.52
2019-05-23T03:30:30.355Z,13.32
2019-05-23T03:41:04.075Z,14.19
2019-05-23T03:51:39.597Z,14.83
2019-05-23T04:02:15.326Z,16.14
2019-05-23T04:12:48.743Z,17.15
2019-05-23T04:23:22.545Z,17.21
2019-05-23T04:33:55.855Z,18.50
2019-05-23T04:44:28.616Z,19.22
2019-05-23T04:55:02.382Z,20.72
2019-05-23T05:05:36.838Z,22.04
2019-05-23T05:16:11.667Z,22.17
2019-05-23T05:26:47.294Z,20.56
2019-05-23T05:37:20.914Z,21.66
2019-05-23T05:47:54.518Z,24.28
2019-05-23T05:58:28.186Z,25.24
2019-05-23T06:19:41.703Z,25.91
2019-05-23T06:30:17.034Z,22.94
2019-05-23T06:40:51.506Z,25.23
2019-05-23T06:51:26.211Z,25.11
2019-05-23T07:01:59.662Z,23.65
2019-05-23T07:12:34.296Z,25.08
2019-05-23T07:23:07.792Z,27.36
2019-05-23T07:33:59.857Z,25.71
2019-05-23T07:44:18.139Z,22.23
2019-05-23T07:54:54.865Z,22.36
2019-05-23T08:05:31.806Z,23.42
2019-05-23T08:16:05.352Z,25.68
2019-05-23T08:26:39.833Z,27.43
2019-05-23T08:37:14.416Z,29.36
2019-05-23T08:47:48.167Z,27.83
2019-05-23T08:58:21.021Z,27.15
2019-05-23T09:08:54.662Z,28.61
2019-05-23T09:19:28.507Z,29.32
2019-05-23T09:30:01.256Z,28.66
2019-05-23T09:40:34.417Z,28.11
2019-05-23T09:51:08.062Z,27.54
2019-05-23T10:01:40.925Z,29.43
2019-05-23T10:12:14.835Z,29.86
2019-05-23T10:22:48.328Z,29.89
2019-05-23T10:33:23.009Z,28.65
2019-05-23T10:43:56.836Z,29.14
2019-05-23T10:54:30.400Z,28.95
2019-05-23T11:05:12.133Z,27.91
2019-05-23T11:15:39.261Z,27.49
2019-05-23T11:26:13.799Z,27.47
2019-05-23T11:36:47.331Z,26.39
2019-05-23T11:47:21.644Z,26.08
2019-05-23T11:57:55.113Z,27.37
2019-05-23T12:08:28.655Z,27.34
2019-05-23T12:19:02.073Z,26.87
2019-05-23T12:29:35.495Z,26.59
2019-05-23T12:40:09.924Z,26.07
2019-05-23T12:50:54.127Z,25.93
2019-05-23T13:01:28.105Z,25.98
2019-05-23T13:12:01.877Z,24.51
2019-05-23T13:22:35.541Z,24.45
2019-05-23T13:33:09.135Z,22.73
2019-05-23T13:43:43.880Z,21.11
2019-05-23T13:54:16.562Z,21.19
2019-05-23T14:04:50.135Z,21.59
2019-05-23T14:15:25.870Z,23.78
2019-05-23T14:26:01.522Z,23.68
2019-05-23T14:36:49.239Z,21.91
2019-05-23T14:47:26.940Z,21.88
2019-05-23T14:58:00.834Z,21.97
2019-05-23T15:08:49.653Z,22.05
2019-05-23T15:19:09.295Z,21.61
2019-05-23T15:29:42.854Z,21.21
2019-05-23T15:40:16.384Z,21.09
2019-05-23T15:50:56.053Z,20.94
2019-05-23T16:12:48.893Z,20.69
2019-05-23T16:23:22.284Z,20.17
2019-05-23T16:33:55.664Z,19.52
2019-05-23T16:44:29.177Z,19.07
2019-05-23T16:55:04.833Z,18.66
2019-05-23T17:05:50.333Z,18.36
2019-05-23T17:16:29.622Z,18.31
2019-05-23T17:27:05.283Z,17.58
2019-05-23T17:37:38.486Z,17.12
2019-05-23T17:48:12.179Z,16.78
2019-05-23T17:58:47.140Z,16.42
2019-05-23T18:09:23.037Z,16.04
2019-05-23T18:19:57.538Z,15.83
2019-05-23T18:30:33.154Z,15.83
2019-05-23T18:41:09.157Z,15.77
2019-05-23T18:51:42.520Z,15.54
2019-05-23T19:02:17.033Z,15.27
2019-05-23T19:12:50.577Z,14.94
2019-05-23T19:23:24.239Z,14.70
2019-05-23T19:33:57.829Z,14.55
2019-05-23T19:44:31.288Z,14.54
2019-05-23T19:55:04.767Z,14.44
2019-05-23T20:05:43.076Z,14.42
2019-05-23T20:16:16.746Z,14.28
2019-05-23T20:26:50.372Z,14.24
2019-05-23T20:37:23.954Z,14.24
2019-05-23T20:47:57.305Z,14.26
2019-05-23T20:58:30.946Z,14.09
2019-05-23T21:09:04.444Z,13.80
2019-05-23T21:19:37.224Z,13.49
2019-05-23T21:30:10.127Z,13.27
2019-05-23T21:40:57.881Z,13.17
2019-05-23T21:51:32.666Z,13.06
2019-05-23T22:02:12.205Z,12.95
2019-05-23T22:12:45.690Z,12.88
2019-05-23T22:23:20.200Z,12.83
2019-05-23T22:34:13.884Z,12.78
2019-05-23T22:44:47.367Z,12.66
2019-05-23T22:55:20.885Z,12.67
2019-05-23T23:05:54.646Z,12.59
2019-05-23T23:16:28.087Z,12.49
2019-05-23T23:27:01.685Z,12.36
2019-05-23T23:37:35.345Z,12.33
2019-05-23T23:48:15.301Z,12.23
2019-05-23T23:58:48.694Z,12.18
